createdAt,value
2022-09-24T00:00:34.441Z,0.00
2022-09-24T00:01:34.510Z,0.00
2022-09-24T00:02:34.447Z,0.00
2022-09-24T00:03:34.455Z,0.00
2022-09-24T00:04:34.394Z,0.00
2022-09-24T00:05:34.386Z,0.00
2022-09-24T00:06:34.383Z,0.00
2022-09-24T00:07:34.365Z,0.00
2022-09-24T00:08:34.393Z,0.00
2022-09-24T00:09:34.348Z,0.00
2022-09-24T00:10:34.353Z,0.00
2022-09-24T00:11:34.359Z,0.00
2022-09-24T00:12:34.329Z,0.00
2022-09-24T00:13:34.350Z,0.00
2022-09-24T00:14:34.322Z,0.00
2022-09-24T00:15:34.308Z,0.00
2022-09-24T00:16:34.330Z,0.00
2022-09-24T00:17:34.290Z,0.00
2022-09-24T00:18:34.302Z,0.00
2022-09-24T00:19:34.277Z,0.00
2022-09-24T00:20:34.343Z,0.00
2022-09-24T00:21:34.252Z,0.00
2022-09-24T00:22:34.250Z,0.00
2022-09-24T00:23:34.263Z,0.00
2022-09-24T00:24:34.234Z,0.00
2022-09-24T00:25:34.224Z,0.00
2022-09-24T00:26:34.215Z,0.00
2022-09-24T00:27:34.204Z,0.00
2022-09-24T00:28:34.226Z,0.00
2022-09-24T00:29:34.416Z,0.00
2022-09-24T00:30:34.199Z,0.00
2022-09-24T00:31:34.223Z,0.00
2022-09-24T00:32:34.165Z,0.00
2022-09-24T00:33:34.196Z,0.00
2022-09-24T00:34:34.152Z,0.00
2022-09-24T00:35:34.138Z,0.00
2022-09-24T00:36:34.130Z,0.00
2022-09-24T00:37:34.118Z,0.00
2022-09-24T00:38:34.147Z,0.00
2022-09-24T00:39:34.107Z,0.00
2022-09-24T00:40:34.191Z,0.00
2022-09-24T00:41:35.086Z,0.00
2022-09-24T00:42:34.092Z,0.00
2022-09-24T00:43:34.085Z,0.00
2022-09-24T00:44:34.095Z,0.00
2022-09-24T00:45:34.049Z,0.00
2022-09-24T00:46:34.107Z,0.00
2022-09-24T00:47:34.038Z,0.00
2022-09-24T00:48:34.026Z,0.00
2022-09-24T00:49:34.050Z,0.00
2022-09-24T00:50:34.013Z,0.00
2022-09-24T00:51:34.033Z,0.00
2022-09-24T00:52:34.004Z,0.00
2022-09-24T00:53:33.990Z,0.00
2022-09-24T00:54:34.015Z,0.00
2022-09-24T00:55:33.973Z,0.00
2022-09-24T00:56:34.016Z,0.00
2022-09-24T00:57:34.018Z,0.00
2022-09-24T00:58:33.951Z,0.00
2022-09-24T00:59:33.977Z,0.00
2022-09-24T01:00:33.985Z,0.00
2022-09-24T01:01:35.028Z,0.00
2022-09-24T01:02:34.010Z,0.00
2022-09-24T01:03:33.907Z,0.00
2022-09-24T01:04:34.008Z,0.00
2022-09-24T01:05:33.888Z,0.00
2022-09-24T01:06:33.883Z,0.00
2022-09-24T01:07:33.883Z,0.00
2022-09-24T01:08:33.866Z,0.00
2022-09-24T01:09:33.885Z,0.00
2022-09-24T01:10:33.851Z,0.00
2022-09-24T01:11:33.843Z,0.00
2022-09-24T01:12:33.831Z,0.00
2022-09-24T01:13:33.840Z,0.00
2022-09-24T01:14:33.848Z,0.00
2022-09-24T01:15:33.812Z,0.00
2022-09-24T01:16:33.890Z,0.00
2022-09-24T01:17:33.792Z,0.00
2022-09-24T01:18:33.787Z,0.00
2022-09-24T01:19:33.808Z,0.00
2022-09-24T01:20:33.771Z,0.00
2022-09-24T01:21:33.760Z,0.00
2022-09-24T01:22:33.750Z,0.00
2022-09-24T01:23:33.754Z,0.00
2022-09-24T01:24:33.761Z,0.00
2022-09-24T01:25:33.731Z,0.00
2022-09-24T01:26:33.736Z,0.00
2022-09-24T01:27:33.699Z,0.00
2022-09-24T01:28:34.709Z,0.00
2022-09-24T01:29:33.722Z,0.00
2022-09-24T01:30:33.691Z,0.00
2022-09-24T01:31:33.710Z,0.00
2022-09-24T01:32:33.664Z,0.00
2022-09-24T01:33:33.662Z,0.00
2022-09-24T01:34:33.680Z,0.00
2022-09-24T01:35:33.641Z,0.00
2022-09-24T01:36:33.634Z,0.00
2022-09-24T01:37:33.638Z,0.00
2022-09-24T01:38:33.620Z,0.00
2022-09-24T01:39:33.642Z,0.00
2022-09-24T01:40:33.663Z,0.00
2022-09-24T01:41:33.596Z,0.00
2022-09-24T01:42:33.587Z,0.00
2022-09-24T01:43:33.580Z,0.00
2022-09-24T01:44:33.599Z,0.00
2022-09-24T01:45:33.561Z,0.00
2022-09-24T01:46:33.611Z,0.00
2022-09-24T01:47:34.862Z,0.00
2022-09-24T01:48:34.547Z,0.00
2022-09-24T01:49:33.560Z,0.00
2022-09-24T01:50:33.523Z,0.00
2022-09-24T01:51:33.516Z,0.00
2022-09-24T01:52:33.513Z,0.00
2022-09-24T01:53:33.503Z,0.00
2022-09-24T01:54:33.534Z,0.00
2022-09-24T01:55:33.487Z,0.00
2022-09-24T01:56:33.471Z,0.00
2022-09-24T01:57:33.465Z,0.00
2022-09-24T01:58:33.462Z,0.00
2022-09-24T01:59:33.483Z,0.00
2022-09-24T02:00:33.518Z,0.00
2022-09-24T02:01:33.529Z,0.00
2022-09-24T02:02:33.487Z,0.00
2022-09-24T02:03:33.416Z,0.00
2022-09-24T02:04:33.444Z,0.00
2022-09-24T02:05:33.396Z,0.00
2022-09-24T02:06:33.395Z,0.00
2022-09-24T02:07:33.381Z,0.00
2022-09-24T02:08:33.397Z,0.00
2022-09-24T02:09:33.378Z,0.00
2022-09-24T02:10:33.383Z,0.00
2022-09-24T02:11:33.354Z,0.00
2022-09-24T02:12:33.349Z,0.00
2022-09-24T02:13:33.338Z,0.00
2022-09-24T02:14:33.330Z,0.00
2022-09-24T02:15:33.353Z,0.00
2022-09-24T02:16:33.351Z,0.00
2022-09-24T02:17:33.299Z,0.00
2022-09-24T02:18:33.295Z,0.00
2022-09-24T02:19:33.318Z,0.00
2022-09-24T02:20:33.285Z,0.00
2022-09-24T02:21:33.272Z,0.00
2022-09-24T02:22:33.261Z,0.00
2022-09-24T02:23:33.255Z,0.00
2022-09-24T02:24:33.285Z,0.00
2022-09-24T02:25:33.232Z,0.00
2022-09-24T02:26:33.236Z,0.00
2022-09-24T02:27:33.319Z,0.00
2022-09-24T02:28:33.207Z,0.00
2022-09-24T02:29:33.240Z,0.00
2022-09-24T02:30:33.197Z,0.00
2022-09-24T02:31:33.299Z,0.00
2022-09-24T02:32:33.284Z,0.00
2022-09-24T02:33:33.172Z,0.00
2022-09-24T02:34:33.190Z,0.00
2022-09-24T02:35:33.149Z,0.00
2022-09-24T02:36:33.151Z,0.00
2022-09-24T02:37:33.227Z,0.00
2022-09-24T02:38:33.132Z,0.00
2022-09-24T02:39:33.162Z,0.00
2022-09-24T02:40:33.184Z,0.00
2022-09-24T02:41:33.106Z,0.00
2022-09-24T02:42:33.160Z,0.00
2022-09-24T02:43:34.087Z,0.00
2022-09-24T02:44:33.115Z,0.00
2022-09-24T02:45:33.069Z,0.00
2022-09-24T02:46:33.132Z,0.00
2022-09-24T02:47:33.139Z,0.00
2022-09-24T02:48:33.047Z,0.00
2022-09-24T02:49:33.093Z,0.00
2022-09-24T02:50:33.032Z,0.00
2022-09-24T02:51:33.023Z,0.00
2022-09-24T02:52:33.083Z,0.00
2022-09-24T02:53:33.005Z,0.00
2022-09-24T02:54:32.991Z,0.00
2022-09-24T02:55:33.029Z,0.00
2022-09-24T02:56:32.975Z,0.00
2022-09-24T02:57:32.972Z,0.00
2022-09-24T02:58:32.954Z,0.00
2022-09-24T02:59:32.947Z,0.00
2022-09-24T03:00:32.967Z,0.00
2022-09-24T03:01:32.948Z,0.00
2022-09-24T03:02:33.999Z,0.00
2022-09-24T03:03:32.919Z,0.00
2022-09-24T03:04:32.906Z,0.00
2022-09-24T03:05:32.930Z,0.00
2022-09-24T03:06:32.914Z,0.00
2022-09-24T03:07:32.883Z,0.00
2022-09-24T03:08:32.881Z,0.00
2022-09-24T03:09:32.879Z,0.00
2022-09-24T03:10:32.886Z,0.00
2022-09-24T03:11:32.851Z,0.00
2022-09-24T03:12:32.838Z,0.00
2022-09-24T03:13:32.825Z,0.00
2022-09-24T03:14:32.853Z,0.00
2022-09-24T03:15:32.844Z,0.00
2022-09-24T03:16:32.889Z,0.00
2022-09-24T03:17:32.802Z,0.00
2022-09-24T03:18:32.792Z,0.00
2022-09-24T03:19:32.816Z,0.00
2022-09-24T03:20:32.789Z,0.00
2022-09-24T03:21:32.765Z,0.00
2022-09-24T03:22:32.759Z,0.00
2022-09-24T03:23:32.746Z,0.00
2022-09-24T03:24:32.778Z,0.00
2022-09-24T03:25:32.742Z,0.00
2022-09-24T03:26:32.728Z,0.00
2022-09-24T03:27:32.725Z,0.00
2022-09-24T03:28:32.706Z,0.00
2022-09-24T03:29:32.752Z,0.00
2022-09-24T03:30:32.695Z,0.00
2022-09-24T03:31:32.762Z,0.00
2022-09-24T03:32:32.681Z,0.00
2022-09-24T03:33:32.666Z,0.00
2022-09-24T03:34:32.694Z,0.00
2022-09-24T03:35:32.658Z,0.00
2022-09-24T03:36:32.645Z,0.00
2022-09-24T03:37:32.639Z,0.00
2022-09-24T03:38:32.625Z,0.00
2022-09-24T03:39:32.609Z,0.00
2022-09-24T03:40:32.724Z,0.00
2022-09-24T03:41:32.598Z,0.00
2022-09-24T03:42:32.632Z,0.00
2022-09-24T03:43:32.592Z,0.00
2022-09-24T03:44:32.577Z,0.00
2022-09-24T03:45:32.595Z,0.00
2022-09-24T03:46:32.604Z,0.00
2022-09-24T03:47:32.552Z,0.00
2022-09-24T03:48:32.544Z,0.00
2022-09-24T03:49:32.540Z,0.00
2022-09-24T03:50:32.557Z,0.00
2022-09-24T03:51:32.514Z,0.00
2022-09-24T03:52:32.507Z,0.00
2022-09-24T03:53:32.500Z,0.00
2022-09-24T03:54:32.521Z,0.00
2022-09-24T03:55:32.515Z,0.00
2022-09-24T03:56:32.471Z,0.00
2022-09-24T03:57:32.465Z,0.00
2022-09-24T03:58:32.459Z,0.00
2022-09-24T03:59:32.460Z,0.00
2022-09-24T04:00:35.344Z,0.00
2022-09-24T04:01:33.489Z,0.00
2022-09-24T04:02:32.495Z,0.00
2022-09-24T04:03:32.417Z,0.00
2022-09-24T04:04:32.413Z,0.00
2022-09-24T04:05:32.436Z,0.00
2022-09-24T04:06:32.393Z,0.00
2022-09-24T04:07:32.389Z,0.00
2022-09-24T04:08:32.376Z,0.00
2022-09-24T04:09:32.372Z,0.00
2022-09-24T04:10:32.387Z,0.00
2022-09-24T04:11:32.360Z,0.00
2022-09-24T04:12:32.350Z,0.00
2022-09-24T04:13:32.347Z,0.00
2022-09-24T04:14:32.324Z,0.00
2022-09-24T04:15:32.345Z,0.00
2022-09-24T04:16:32.343Z,0.00
2022-09-24T04:17:32.304Z,0.00
2022-09-24T04:18:37.018Z,0.00
2022-09-24T04:19:34.283Z,0.00
2022-09-24T04:20:32.306Z,0.00
2022-09-24T04:21:32.264Z,0.00
2022-09-24T04:22:32.257Z,0.00
2022-09-24T04:23:32.253Z,0.00
2022-09-24T04:24:32.238Z,0.00
2022-09-24T04:25:32.258Z,0.00
2022-09-24T04:26:32.230Z,0.00
2022-09-24T04:27:32.230Z,0.00
2022-09-24T04:28:32.213Z,0.00
2022-09-24T04:29:32.197Z,0.00
2022-09-24T04:30:32.226Z,0.00
2022-09-24T04:31:32.213Z,0.00
2022-09-24T04:32:32.185Z,0.00
2022-09-24T04:33:32.167Z,0.00
2022-09-24T04:34:32.159Z,0.00
2022-09-24T04:35:32.185Z,0.00
2022-09-24T04:36:32.152Z,0.00
2022-09-24T04:37:32.131Z,0.00
2022-09-24T04:38:32.141Z,0.00
2022-09-24T04:39:32.120Z,0.00
2022-09-24T04:40:32.239Z,0.00
2022-09-24T04:41:32.097Z,4.00
2022-09-24T04:42:32.093Z,4.00
2022-09-24T04:43:32.094Z,4.00
2022-09-24T04:44:32.080Z,4.00
2022-09-24T04:45:32.104Z,4.00
2022-09-24T04:46:32.189Z,8.00
2022-09-24T04:47:32.050Z,8.00
2022-09-24T04:48:32.047Z,8.00
2022-09-24T04:49:32.029Z,12.00
2022-09-24T04:50:32.025Z,12.00
2022-09-24T04:51:32.043Z,12.00
2022-09-24T04:52:32.009Z,16.00
2022-09-24T04:53:31.998Z,20.00
2022-09-24T04:54:31.991Z,24.00
2022-09-24T04:55:32.020Z,28.00
2022-09-24T04:56:31.982Z,36.00
2022-09-24T04:57:31.975Z,40.00
2022-09-24T04:58:31.959Z,48.00
2022-09-24T04:59:31.948Z,56.00
2022-09-24T05:00:31.974Z,60.00
2022-09-24T05:01:32.070Z,72.00
2022-09-24T05:02:32.007Z,80.00
2022-09-24T05:03:31.920Z,88.00
2022-09-24T05:04:31.911Z,92.00
2022-09-24T05:05:31.891Z,96.00
2022-09-24T05:06:31.919Z,104.00
2022-09-24T05:07:31.887Z,108.00
2022-09-24T05:08:31.898Z,120.00
2022-09-24T05:09:31.867Z,140.00
2022-09-24T05:10:31.857Z,160.00
2022-09-24T05:11:31.871Z,192.00
2022-09-24T05:12:31.832Z,232.00
2022-09-24T05:13:31.843Z,268.00
2022-09-24T05:14:31.814Z,308.00
2022-09-24T05:15:31.875Z,344.00
2022-09-24T05:16:31.938Z,388.00
2022-09-24T05:17:31.785Z,428.00
2022-09-24T05:18:31.782Z,460.00
2022-09-24T05:19:31.772Z,508.00
2022-09-24T05:20:31.763Z,556.00
2022-09-24T05:21:31.788Z,608.00
2022-09-24T05:22:31.742Z,652.00
2022-09-24T05:23:31.740Z,700.00
2022-09-24T05:24:31.734Z,740.00
2022-09-24T05:25:31.726Z,792.00
2022-09-24T05:26:31.746Z,828.00
2022-09-24T05:27:31.701Z,848.00
2022-09-24T05:28:31.693Z,848.00
2022-09-24T05:29:31.691Z,800.00
2022-09-24T05:30:31.683Z,744.00
2022-09-24T05:31:31.735Z,692.00
2022-09-24T05:32:31.685Z,664.00
2022-09-24T05:33:31.652Z,652.00
2022-09-24T05:34:31.645Z,656.00
2022-09-24T05:35:31.642Z,680.00
2022-09-24T05:36:31.653Z,728.00
2022-09-24T05:37:31.615Z,772.00
2022-09-24T05:38:31.610Z,808.00
2022-09-24T05:39:34.142Z,852.00
2022-09-24T05:40:32.700Z,880.00
2022-09-24T05:41:31.615Z,896.00
2022-09-24T05:42:31.586Z,912.00
2022-09-24T05:43:31.577Z,948.00
2022-09-24T05:44:31.588Z,1000.00
2022-09-24T05:45:31.557Z,1048.00
2022-09-24T05:46:31.612Z,1104.00
2022-09-24T05:47:31.604Z,1168.00
2022-09-24T05:48:31.535Z,1280.00
2022-09-24T05:49:31.533Z,1496.00
2022-09-24T05:50:31.518Z,1684.00
2022-09-24T05:51:31.536Z,1868.00
2022-09-24T05:52:31.501Z,1928.00
2022-09-24T05:53:31.488Z,1816.00
2022-09-24T05:54:31.483Z,1672.00
2022-09-24T05:55:32.580Z,1780.00
2022-09-24T05:56:32.492Z,1968.00
2022-09-24T05:57:31.451Z,2032.00
2022-09-24T05:58:31.448Z,2048.00
2022-09-24T05:59:31.436Z,2036.00
2022-09-24T06:00:31.424Z,1984.00
2022-09-24T06:01:31.506Z,1968.00
2022-09-24T06:02:31.450Z,1952.00
2022-09-24T06:03:31.546Z,1928.00
2022-09-24T06:04:31.413Z,1912.00
2022-09-24T06:05:31.393Z,1956.00
2022-09-24T06:06:31.421Z,2036.00
2022-09-24T06:07:31.374Z,2116.00
2022-09-24T06:08:31.371Z,2188.00
2022-09-24T06:09:31.354Z,2280.00
2022-09-24T06:10:31.349Z,2380.00
2022-09-24T06:11:31.369Z,2496.00
2022-09-24T06:12:31.339Z,2604.00
2022-09-24T06:13:31.346Z,2712.00
2022-09-24T06:14:31.320Z,2744.00
2022-09-24T06:15:31.304Z,2780.00
2022-09-24T06:16:31.365Z,2844.00
2022-09-24T06:17:31.286Z,2972.00
2022-09-24T06:18:31.274Z,3108.00
2022-09-24T06:19:31.271Z,3248.00
2022-09-24T06:20:31.373Z,3352.00
2022-09-24T06:21:31.287Z,3448.00
2022-09-24T06:22:31.241Z,3556.00
2022-09-24T06:23:31.235Z,3624.00
2022-09-24T06:24:31.223Z,3608.00
2022-09-24T06:25:31.226Z,3592.00
2022-09-24T06:26:31.241Z,3640.00
2022-09-24T06:27:31.202Z,3648.00
2022-09-24T06:28:31.202Z,3632.00
2022-09-24T06:29:31.182Z,3616.00
2022-09-24T06:30:31.172Z,3596.00
2022-09-24T06:31:31.242Z,3516.00
2022-09-24T06:32:31.164Z,3588.00
2022-09-24T06:33:31.148Z,3748.00
2022-09-24T06:34:31.143Z,3968.00
2022-09-24T06:35:31.134Z,4372.00
2022-09-24T06:36:31.151Z,4740.00
2022-09-24T06:37:31.108Z,4940.00
2022-09-24T06:38:31.136Z,4984.00
2022-09-24T06:39:31.096Z,4832.00
2022-09-24T06:40:36.259Z,5000.00
2022-09-24T06:41:33.099Z,4940.00
2022-09-24T06:42:31.072Z,5260.00
2022-09-24T06:43:31.060Z,5028.00
2022-09-24T06:44:31.095Z,4660.00
2022-09-24T06:45:31.047Z,4732.00
2022-09-24T06:46:31.076Z,5092.00
2022-09-24T06:47:31.041Z,5616.00
2022-09-24T06:48:31.019Z,6244.00
2022-09-24T06:49:34.108Z,6860.00
2022-09-24T06:50:31.999Z,7160.00
2022-09-24T06:51:31.023Z,7048.00
2022-09-24T06:52:30.989Z,6600.00
2022-09-24T06:53:30.973Z,7224.00
2022-09-24T06:54:30.972Z,8044.00
2022-09-24T06:55:30.959Z,8572.00
2022-09-24T06:56:30.976Z,8600.00
2022-09-24T06:57:30.937Z,9592.00
2022-09-24T06:58:30.933Z,10368.00
2022-09-24T06:59:31.922Z,10144.00
2022-09-24T07:00:30.920Z,8284.00
2022-09-24T07:01:31.051Z,6196.00
2022-09-24T07:02:30.982Z,6792.00
2022-09-24T07:03:30.896Z,7220.00
2022-09-24T07:04:30.883Z,9544.00
2022-09-24T07:05:30.875Z,9960.00
2022-09-24T07:06:30.904Z,9252.00
2022-09-24T07:07:30.863Z,9184.00
2022-09-24T07:08:30.850Z,10280.00
2022-09-24T07:09:30.845Z,10276.00
2022-09-24T07:10:30.835Z,9116.00
2022-09-24T07:11:30.862Z,8624.00
2022-09-24T07:12:30.813Z,8576.00
2022-09-24T07:13:30.807Z,8736.00
2022-09-24T07:14:30.795Z,10516.00
2022-09-24T07:15:30.789Z,12144.00
2022-09-24T07:16:30.889Z,12392.00
2022-09-24T07:17:33.917Z,11140.00
2022-09-24T07:18:31.768Z,12296.00
2022-09-24T07:19:30.757Z,13716.00
2022-09-24T07:20:30.751Z,11996.00
2022-09-24T07:21:31.772Z,10032.00
2022-09-24T07:22:30.730Z,9160.00
2022-09-24T07:23:30.790Z,8636.00
2022-09-24T07:24:30.723Z,9312.00
2022-09-24T07:25:30.706Z,9712.00
2022-09-24T07:26:30.705Z,13316.00
2022-09-24T07:27:30.715Z,11908.00
2022-09-24T07:28:30.683Z,16480.00
2022-09-24T07:29:30.677Z,17600.00
2022-09-24T07:30:30.667Z,23840.00
2022-09-24T07:31:30.717Z,21376.00
2022-09-24T07:32:30.681Z,25856.00
2022-09-24T07:33:30.639Z,22752.00
2022-09-24T07:34:31.624Z,29152.00
2022-09-24T07:35:30.620Z,27232.00
2022-09-24T07:36:30.621Z,36192.00
2022-09-24T07:37:30.635Z,36128.00
2022-09-24T07:38:30.601Z,22240.00
2022-09-24T07:39:30.647Z,25184.00
2022-09-24T07:40:30.634Z,19264.00
2022-09-24T07:41:30.579Z,23200.00
2022-09-24T07:42:30.598Z,36608.00
2022-09-24T07:43:30.560Z,30144.00
2022-09-24T07:44:30.549Z,38848.00
2022-09-24T07:45:30.558Z,30624.00
2022-09-24T07:46:30.608Z,32960.00
2022-09-24T07:47:31.561Z,33696.00
2022-09-24T07:48:30.515Z,40992.00
2022-09-24T07:49:30.515Z,35872.00
2022-09-24T07:50:30.504Z,31616.00
2022-09-24T07:51:30.490Z,35168.00
2022-09-24T07:52:30.508Z,29024.00
2022-09-24T07:53:30.474Z,21984.00
2022-09-24T07:54:30.463Z,28960.00
2022-09-24T07:55:30.456Z,30816.00
2022-09-24T07:56:30.453Z,34976.00
2022-09-24T07:57:30.474Z,45216.00
2022-09-24T07:58:30.437Z,46816.00
2022-09-24T07:59:30.423Z,36192.00
2022-09-24T08:00:30.415Z,39872.00
2022-09-24T08:01:30.495Z,68576.00
2022-09-24T08:02:30.439Z,89056.00
2022-09-24T08:03:30.471Z,81472.00
2022-09-24T08:04:30.378Z,89376.00
2022-09-24T08:05:30.376Z,62592.00
2022-09-24T08:06:34.485Z,44640.00
2022-09-24T08:07:31.387Z,47168.00
2022-09-24T08:08:30.351Z,49248.00
2022-09-24T08:09:30.343Z,46560.00
2022-09-24T08:10:30.334Z,49440.00
2022-09-24T08:11:30.384Z,48576.00
2022-09-24T08:12:30.355Z,50272.00
2022-09-24T08:13:30.310Z,52832.00
2022-09-24T08:14:30.297Z,41984.00
2022-09-24T08:15:30.291Z,39680.00
2022-09-24T08:16:30.318Z,48544.00
2022-09-24T08:17:30.303Z,50400.00
2022-09-24T08:18:30.307Z,56704.00
2022-09-24T08:19:30.260Z,57600.00
2022-09-24T08:20:30.252Z,47520.00
2022-09-24T08:21:30.249Z,49600.00
2022-09-24T08:22:30.267Z,47968.00
2022-09-24T08:23:30.261Z,47200.00
2022-09-24T08:24:30.219Z,58944.00
2022-09-24T08:25:30.222Z,63936.00
2022-09-24T08:26:30.203Z,69728.00
2022-09-24T08:27:30.226Z,79424.00
2022-09-24T08:28:30.240Z,94624.00
2022-09-24T08:29:31.195Z,86912.00
2022-09-24T08:30:30.174Z,97568.00
2022-09-24T08:31:30.233Z,91744.00
2022-09-24T08:32:30.192Z,87328.00
2022-09-24T08:33:30.146Z,94176.00
2022-09-24T08:34:30.140Z,98528.00
2022-09-24T08:35:30.131Z,75168.00
2022-09-24T08:36:30.129Z,66304.00
2022-09-24T08:37:30.143Z,63296.00
2022-09-24T08:38:30.113Z,72800.00
2022-09-24T08:39:30.093Z,59904.00
2022-09-24T08:40:30.160Z,67008.00
2022-09-24T08:41:30.079Z,80224.00
2022-09-24T08:42:30.108Z,82720.00
2022-09-24T08:43:30.120Z,107232.00
2022-09-24T08:44:30.056Z,86304.00
2022-09-24T08:45:30.052Z,71520.00
2022-09-24T08:46:30.103Z,63520.00
2022-09-24T08:47:30.061Z,72000.00
2022-09-24T08:48:30.020Z,91168.00
2022-09-24T08:49:30.012Z,66112.00
2022-09-24T08:50:30.008Z,75456.00
2022-09-24T08:51:33.326Z,51424.00
2022-09-24T08:52:31.023Z,59648.00
2022-09-24T08:53:29.984Z,63200.00
2022-09-24T08:54:29.973Z,50912.00
2022-09-24T08:55:29.966Z,54688.00
2022-09-24T08:56:29.964Z,40704.00
2022-09-24T08:57:29.986Z,38912.00
2022-09-24T08:58:29.942Z,40256.00
2022-09-24T08:59:29.994Z,40288.00
2022-09-24T09:00:29.928Z,41248.00
2022-09-24T09:01:29.991Z,44384.00
2022-09-24T09:02:30.026Z,46144.00
2022-09-24T09:03:29.905Z,53280.00
2022-09-24T09:04:29.948Z,55552.00
2022-09-24T09:05:29.900Z,56288.00
2022-09-24T09:06:29.885Z,52896.00
2022-09-24T09:07:29.907Z,44992.00
2022-09-24T09:08:50.435Z,43456.00
2022-09-24T09:09:31.851Z,43456.00
2022-09-24T09:10:29.845Z,36928.00
2022-09-24T09:11:29.834Z,39104.00
2022-09-24T09:12:29.864Z,39072.00
2022-09-24T09:13:29.838Z,41984.00
2022-09-24T09:14:31.561Z,40512.00
2022-09-24T09:15:30.821Z,44224.00
2022-09-24T09:16:29.840Z,54144.00
2022-09-24T09:17:29.821Z,40160.00
2022-09-24T09:18:29.787Z,36608.00
2022-09-24T09:19:29.780Z,56928.00
2022-09-24T09:20:29.767Z,45216.00
2022-09-24T09:21:29.759Z,44320.00
2022-09-24T09:22:29.779Z,52608.00
2022-09-24T09:23:29.756Z,74048.00
2022-09-24T09:24:29.736Z,50752.00
2022-09-24T09:25:29.732Z,49952.00
2022-09-24T09:26:29.727Z,38464.00
2022-09-24T09:27:29.751Z,43968.00
2022-09-24T09:28:29.693Z,41184.00
2022-09-24T09:29:30.705Z,47968.00
2022-09-24T09:30:29.694Z,33984.00
2022-09-24T09:31:29.811Z,33728.00
2022-09-24T09:32:29.715Z,44128.00
2022-09-24T09:33:29.677Z,34496.00
2022-09-24T09:34:29.713Z,43552.00
2022-09-24T09:35:29.657Z,35552.00
2022-09-24T09:36:29.647Z,29568.00
2022-09-24T09:37:29.638Z,26080.00
2022-09-24T09:38:29.665Z,23520.00
2022-09-24T09:39:29.618Z,22112.00
2022-09-24T09:40:32.164Z,21152.00
2022-09-24T09:41:30.703Z,20576.00
2022-09-24T09:42:29.606Z,20160.00
2022-09-24T09:43:29.626Z,19840.00
2022-09-24T09:44:29.584Z,19712.00
2022-09-24T09:45:29.572Z,19488.00
2022-09-24T09:46:29.605Z,19456.00
2022-09-24T09:47:29.588Z,19584.00
2022-09-24T09:48:29.585Z,19968.00
2022-09-24T09:49:29.550Z,20064.00
2022-09-24T09:50:29.534Z,20832.00
2022-09-24T09:51:29.512Z,20928.00
2022-09-24T09:52:30.514Z,20864.00
2022-09-24T09:53:29.533Z,20928.00
2022-09-24T09:54:29.496Z,21376.00
2022-09-24T09:55:29.493Z,22016.00
2022-09-24T09:56:29.485Z,23072.00
2022-09-24T09:57:29.472Z,22816.00
2022-09-24T09:58:29.490Z,23392.00
2022-09-24T09:59:29.984Z,24416.00
2022-09-24T10:00:30.448Z,26848.00
2022-09-24T10:01:29.445Z,25312.00
2022-09-24T10:02:29.676Z,24960.00
2022-09-24T10:03:29.531Z,24544.00
2022-09-24T10:04:29.462Z,24864.00
2022-09-24T10:05:29.419Z,25248.00
2022-09-24T10:06:29.410Z,25504.00
2022-09-24T10:07:29.400Z,26976.00
2022-09-24T10:08:29.417Z,27936.00
2022-09-24T10:09:29.381Z,29312.00
2022-09-24T10:10:29.384Z,30400.00
2022-09-24T10:11:29.360Z,34080.00
2022-09-24T10:12:29.353Z,36640.00
2022-09-24T10:13:29.385Z,35552.00
2022-09-24T10:14:29.344Z,47104.00
2022-09-24T10:15:29.323Z,42848.00
2022-09-24T10:16:29.375Z,55872.00
2022-09-24T10:17:29.314Z,33792.00
2022-09-24T10:18:29.338Z,39200.00
2022-09-24T10:19:29.295Z,34240.00
2022-09-24T10:20:29.309Z,33088.00
2022-09-24T10:21:29.283Z,33120.00
2022-09-24T10:22:29.270Z,37056.00
2022-09-24T10:23:29.286Z,35488.00
2022-09-24T10:24:29.255Z,35296.00
2022-09-24T10:25:29.245Z,57440.00
2022-09-24T10:26:29.243Z,45344.00
2022-09-24T10:27:29.228Z,39200.00
2022-09-24T10:28:29.252Z,48352.00
2022-09-24T10:29:29.216Z,41536.00
2022-09-24T10:30:29.218Z,43872.00
2022-09-24T10:31:29.241Z,42304.00
2022-09-24T10:32:29.189Z,54464.00
2022-09-24T10:33:29.221Z,45824.00
2022-09-24T10:34:29.192Z,42592.00
2022-09-24T10:35:29.170Z,39840.00
2022-09-24T10:36:29.167Z,55552.00
2022-09-24T10:37:29.158Z,56704.00
2022-09-24T10:38:29.150Z,55296.00
2022-09-24T10:39:29.158Z,52544.00
2022-09-24T10:40:29.174Z,65280.00
2022-09-24T10:41:29.123Z,79808.00
2022-09-24T10:42:29.167Z,93216.00
2022-09-24T10:43:29.108Z,109440.00
2022-09-24T10:44:29.120Z,93728.00
2022-09-24T10:45:29.084Z,111008.00
2022-09-24T10:46:29.135Z,111936.00
2022-09-24T10:47:29.064Z,105728.00
2022-09-24T10:48:29.066Z,110912.00
2022-09-24T10:49:29.082Z,100896.00
2022-09-24T10:50:29.053Z,82880.00
2022-09-24T10:51:29.735Z,85088.00
2022-09-24T10:52:30.021Z,77856.00
2022-09-24T10:53:29.033Z,52320.00
2022-09-24T10:54:29.046Z,49440.00
2022-09-24T10:55:29.005Z,56160.00
2022-09-24T10:56:29.004Z,58848.00
2022-09-24T10:57:28.992Z,68640.00
2022-09-24T10:58:28.988Z,65824.00
2022-09-24T10:59:29.004Z,49056.00
2022-09-24T11:00:28.980Z,46496.00
2022-09-24T11:01:29.016Z,43776.00
2022-09-24T11:02:29.096Z,47648.00
2022-09-24T11:03:28.944Z,53248.00
2022-09-24T11:04:28.988Z,89792.00
2022-09-24T11:05:28.934Z,60960.00
2022-09-24T11:06:28.931Z,56256.00
2022-09-24T11:07:28.920Z,39200.00
2022-09-24T11:08:28.915Z,44288.00
2022-09-24T11:09:28.926Z,39680.00
2022-09-24T11:10:28.898Z,25728.00
2022-09-24T11:11:28.900Z,25504.00
2022-09-24T11:12:47.839Z,27328.00
2022-09-24T11:13:28.910Z,36160.00
2022-09-24T11:14:28.880Z,34912.00
2022-09-24T11:15:28.858Z,89568.00
2022-09-24T11:16:28.914Z,92928.00
2022-09-24T11:17:28.848Z,65504.00
2022-09-24T11:18:29.160Z,43744.00
2022-09-24T11:19:29.041Z,64128.00
2022-09-24T11:20:28.844Z,61760.00
2022-09-24T11:21:29.889Z,48128.00
2022-09-24T11:22:28.806Z,40320.00
2022-09-24T11:23:28.887Z,35168.00
2022-09-24T11:24:28.822Z,37952.00
2022-09-24T11:25:28.790Z,40832.00
2022-09-24T11:26:28.783Z,42912.00
2022-09-24T11:27:28.771Z,29440.00
2022-09-24T11:28:28.765Z,29888.00
2022-09-24T11:29:31.085Z,32832.00
2022-09-24T11:30:28.745Z,42976.00
2022-09-24T11:31:28.766Z,50848.00
2022-09-24T11:32:28.724Z,52704.00
2022-09-24T11:33:28.726Z,86688.00
2022-09-24T11:34:28.760Z,65376.00
2022-09-24T11:35:28.710Z,58848.00
2022-09-24T11:36:28.706Z,53376.00
2022-09-24T11:37:28.701Z,50592.00
2022-09-24T11:38:28.689Z,35584.00
2022-09-24T11:39:28.990Z,40672.00
2022-09-24T11:40:28.757Z,47872.00
2022-09-24T11:41:28.808Z,76064.00
2022-09-24T11:42:28.660Z,65120.00
2022-09-24T11:43:28.771Z,87648.00
2022-09-24T11:44:28.772Z,79168.00
2022-09-24T11:45:28.706Z,79904.00
2022-09-24T11:46:28.742Z,57568.00
2022-09-24T11:47:28.626Z,62208.00
2022-09-24T11:48:28.802Z,54592.00
2022-09-24T11:49:28.635Z,47168.00
2022-09-24T11:50:28.885Z,38144.00
2022-09-24T11:51:28.593Z,46976.00
2022-09-24T11:52:28.702Z,44640.00
2022-09-24T11:53:28.574Z,34336.00
2022-09-24T11:54:28.605Z,49504.00
2022-09-24T11:55:28.568Z,46080.00
2022-09-24T11:56:28.551Z,44992.00
2022-09-24T11:57:28.662Z,50752.00
2022-09-24T11:58:28.561Z,53664.00
2022-09-24T11:59:28.590Z,46144.00
2022-09-24T12:00:28.570Z,37824.00
2022-09-24T12:01:28.578Z,39392.00
2022-09-24T12:02:28.681Z,44192.00
2022-09-24T12:03:28.600Z,36672.00
2022-09-24T12:04:28.518Z,36160.00
2022-09-24T12:05:28.485Z,46720.00
2022-09-24T12:06:28.485Z,45888.00
2022-09-24T12:07:28.521Z,44512.00
2022-09-24T12:08:28.682Z,36576.00
2022-09-24T12:09:28.492Z,34656.00
2022-09-24T12:10:28.453Z,29600.00
2022-09-24T12:11:29.441Z,25088.00
2022-09-24T12:12:28.565Z,29856.00
2022-09-24T12:13:28.630Z,30496.00
2022-09-24T12:14:28.455Z,28000.00
2022-09-24T12:15:28.413Z,34688.00
2022-09-24T12:16:28.513Z,31424.00
2022-09-24T12:17:28.403Z,37856.00
2022-09-24T12:18:28.415Z,36288.00
2022-09-24T12:19:28.389Z,34368.00
2022-09-24T12:20:28.398Z,42976.00
2022-09-24T12:21:28.373Z,39168.00
2022-09-24T12:22:28.357Z,38688.00
2022-09-24T12:23:28.392Z,41888.00
2022-09-24T12:24:28.356Z,41824.00